.
WxDataArchive / Data Records for 2006-03-05
2006-03-04 March 2006 2006-03-06

Data Records for Sunday, 05 March 2006

Time	Temp	Chill	HIndex	Humid	Dewpt	 Wind 	HiWind	WindDir	Rain 	Barom 
-----	----	-----	------	-----	-----	------	------	-------	-----	----- 
00:00	24.7	24.7	24.7	77	18.5	0	0	---	0.00	30.390 
00:05	24.4	24.4	24.4	77	18.2	0	0	---	0.00	30.390 
00:10	24.2	24.2	24.2	77	18.1	0	0	---	0.00	30.390 
00:15	24.1	24.1	24.1	78	18.3	0	0	---	0.00	30.392 
00:20	23.9	23.9	23.9	78	18.1	0	0	---	0.00	30.392 
00:25	23.8	23.8	23.8	78	18.0	0	0	---	0.00	30.392 
00:30	23.6	23.6	23.6	78	17.8	0	0	---	0.00	30.395 
00:35	23.5	23.5	23.5	78	17.7	0	0	---	0.00	30.395 
00:40	23.3	23.3	23.3	78	17.5	0	0	---	0.00	30.395 
00:45	23.0	23.0	23.0	78	17.2	0	0	---	0.00	30.385 
00:50	22.7	22.7	22.7	79	17.2	0	0	---	0.00	30.385 
00:55	22.4	22.4	22.4	80	17.2	0	0	---	0.00	30.385 
01:00	22.1	22.1	22.1	80	16.9	0	0	---	0.00	30.384 
01:05	21.8	21.8	21.8	81	16.9	0	0	---	0.00	30.384 
01:10	21.6	21.6	21.6	81	16.7	0	0	---	0.00	30.384 
01:15	21.3	21.3	21.3	81	16.4	0	0	---	0.00	30.385 
01:20	21.1	21.1	21.1	82	16.5	0	0	---	0.00	30.385 
01:25	21.0	21.0	21.0	83	16.7	0	0	---	0.00	30.385 
01:30	20.8	20.8	20.8	84	16.7	0	0	---	0.00	30.382 
01:35	20.6	20.6	20.6	84	16.5	0	0	---	0.00	30.382 
01:40	20.5	20.5	20.5	84	16.4	0	0	---	0.00	30.382 
01:45	20.5	20.5	20.5	84	16.4	0	0	---	0.00	30.381 
01:50	20.5	20.5	20.5	84	16.4	0	0	---	0.00	30.381 
01:55	20.5	20.5	20.5	84	16.4	0	0	---	0.00	30.381 
02:00	20.5	20.5	20.5	84	16.4	0	0	---	0.00	30.381 
02:05	20.5	20.5	20.5	83	16.2	0	0	---	0.00	30.381 
02:10	20.3	20.3	20.3	83	16.0	0	0	---	0.00	30.381 
02:15	20.2	20.2	20.2	84	16.2	0	0	---	0.00	30.379 
02:20	20.0	20.0	20.0	83	15.7	0	0	---	0.00	30.379 
02:25	19.7	19.7	19.7	84	15.7	0	0	---	0.00	30.379 
02:30	19.5	19.5	19.5	84	15.5	0	0	---	0.00	30.379 
02:35	19.5	19.5	19.5	84	15.5	0	0	---	0.00	30.379 
02:40	19.4	19.4	19.4	84	15.4	0	0	---	0.00	30.379 
02:45	19.2	19.2	19.2	84	15.2	0	0	---	0.00	30.379 
02:50	18.9	18.9	18.9	84	14.9	0	0	---	0.00	30.379 
02:55	18.8	18.8	18.8	84	14.8	0	0	---	0.00	30.379 
03:00	18.8	18.8	18.8	85	15.1	0	0	---	0.00	30.379 
03:05	18.6	18.6	18.6	85	14.9	0	0	---	0.00	30.379 
03:10	18.6	18.6	18.6	86	15.1	0	0	---	0.00	30.379 
03:15	18.6	18.6	18.6	86	15.1	0	0	---	0.00	30.371 
03:20	18.4	18.4	18.4	86	14.9	0	0	---	0.00	30.371 
03:25	18.3	18.3	18.3	86	14.8	0	0	---	0.00	30.371 
03:30	18.1	18.1	18.1	86	14.6	0	0	---	0.00	30.367 
03:35	18.1	18.1	18.1	86	14.6	0	0	---	0.00	30.367 
03:40	18.1	18.1	18.1	87	14.9	0	0	---	0.00	30.367 
03:45	18.0	18.0	18.0	87	14.8	0	0	---	0.00	30.365 
03:50	18.0	18.0	18.0	87	14.8	0	0	---	0.00	30.365 
03:55	17.8	17.8	17.8	87	14.6	0	0	---	0.00	30.365 
04:00	17.8	17.8	17.8	87	14.6	0	0	---	0.00	30.363 
04:05	17.7	17.7	17.7	87	14.5	0	0	---	0.00	30.363 
04:10	17.5	17.5	17.5	87	14.3	0	0	---	0.00	30.363 
04:15	17.3	17.3	17.3	86	13.8	0	0	---	0.00	30.364 
04:20	17.3	17.3	17.3	87	14.1	0	0	---	0.00	30.364 
04:25	17.5	17.5	17.5	88	14.6	0	0	---	0.00	30.364 
04:30	17.5	17.5	17.5	88	14.6	0	0	---	0.00	30.356 
04:35	17.3	17.3	17.3	87	14.1	0	0	---	0.00	30.356 
04:40	17.3	17.3	17.3	88	14.4	0	0	---	0.00	30.356 
04:45	17.3	17.3	17.3	88	14.4	0	0	---	0.00	30.361 
04:50	17.2	17.2	17.2	88	14.3	0	0	---	0.00	30.361 
04:55	17.2	17.2	17.2	88	14.3	0	0	---	0.00	30.361 
05:00	17.2	17.2	17.2	88	14.3	0	0	---	0.00	30.359 
05:05	17.0	17.0	17.0	87	13.8	0	0	---	0.00	30.359 
05:10	16.9	16.9	16.9	87	13.7	0	0	---	0.00	30.359 
05:15	16.9	16.9	16.9	88	14.0	0	0	---	0.00	30.363 
05:20	16.9	16.9	16.9	88	14.0	0	0	---	0.00	30.363 
05:25	16.7	16.7	16.7	88	13.8	0	0	---	0.00	30.363 
05:30	16.7	16.7	16.7	88	13.8	0	0	---	0.00	30.355 
05:35	16.7	16.7	16.7	88	13.8	0	0	---	0.00	30.355 
05:40	16.7	16.7	16.7	88	13.8	0	0	---	0.00	30.355 
05:45	16.7	16.7	16.7	88	13.8	0	0	---	0.00	30.356 
05:50	16.7	16.7	16.7	88	13.8	0	0	---	0.00	30.356 
05:55	16.9	16.9	16.9	88	14.0	0	0	---	0.00	30.356 
06:00	17.0	17.0	17.0	88	14.1	0	0	---	0.00	30.365 
06:05	17.0	17.0	17.0	88	14.1	0	0	---	0.00	30.365 
06:10	17.0	17.0	17.0	88	14.1	0	0	---	0.00	30.365 
06:15	17.0	17.0	17.0	88	14.1	0	0	---	0.00	30.366 
06:20	17.0	17.0	17.0	88	14.1	0	0	---	0.00	30.366 
06:25	17.0	17.0	17.0	88	14.1	0	0	---	0.00	30.366 
06:30	17.0	17.0	17.0	88	14.1	0	0	---	0.00	30.372 
06:35	17.0	17.0	17.0	88	14.1	0	0	---	0.00	30.372 
06:40	17.0	17.0	17.0	87	13.8	0	0	---	0.00	30.372 
06:45	16.9	16.9	16.9	87	13.7	0	0	---	0.00	30.369 
06:50	16.9	16.9	16.9	87	13.7	0	0	---	0.00	30.369 
06:55	16.7	16.7	16.7	87	13.5	0	0	---	0.00	30.369 
07:00	16.9	16.9	16.9	88	14.0	0	0	---	0.00	30.376 
07:05	16.9	16.9	16.9	87	13.7	0	0	---	0.00	30.376 
07:10	16.9	16.9	16.9	87	13.7	0	0	---	0.00	30.376 
07:15	16.7	16.7	16.7	87	13.5	0	0	---	0.00	30.378 
07:20	16.7	16.7	16.7	87	13.5	0	0	---	0.00	30.378 
07:25	16.7	16.7	16.7	88	13.8	0	0	---	0.00	30.378 
07:30	16.9	16.9	16.9	87	13.7	0	0	---	0.00	30.376 
07:35	17.2	17.2	17.2	88	14.3	0	0	---	0.00	30.376 
07:40	17.3	17.3	17.3	88	14.4	0	0	---	0.00	30.376 
07:45	17.7	17.7	17.7	88	14.8	0	0	---	0.00	30.372 
07:50	18.1	18.1	18.1	88	15.2	0	0	---	0.00	30.372 
07:55	18.6	18.6	18.6	89	15.9	0	0	---	0.00	30.372 
08:00	19.2	19.2	19.2	88	16.2	0	1	0	0.00	30.364 
08:05	19.9	19.9	19.9	89	17.2	0	0	---	0.00	30.364 
08:10	20.5	20.5	20.5	89	17.8	0	0	---	0.00	30.364 
08:15	21.3	21.3	21.3	90	18.8	0	0	---	0.00	30.373 
08:20	21.8	21.8	21.8	89	19.1	0	0	---	0.00	30.373 
08:25	22.2	22.2	22.2	88	19.2	0	0	---	0.00	30.373 
08:30	22.5	22.5	22.5	88	19.5	0	0	---	0.00	30.374 
08:35	23.5	23.5	23.5	89	20.7	0	1	0	0.00	30.374 
08:40	24.4	24.4	24.4	87	21.1	0	2	0	0.00	30.374 
08:45	25.3	25.3	25.3	84	21.2	1	3	0	0.00	30.371 
08:50	26.0	26.0	26.0	82	21.3	1	3	22	0.00	30.371 
08:55	26.6	26.6	26.6	81	21.6	1	3	45	0.00	30.371 
09:00	26.7	26.7	26.7	81	21.7	1	3	45	0.00	30.369 
09:05	27.3	27.3	27.3	79	21.7	2	4	112	0.00	30.369 
09:10	28.1	28.1	28.1	79	22.4	2	3	90	0.00	30.369 
09:15	29.0	29.0	29.0	77	22.7	1	3	90	0.00	30.374 
09:20	29.7	29.7	29.7	75	22.8	2	4	90	0.00	30.374 
09:25	30.1	30.1	30.1	75	23.2	2	4	90	0.00	30.374 
09:30	30.0	30.0	30.0	75	23.1	1	3	90	0.00	30.366 
09:35	30.6	30.6	30.6	75	23.6	2	4	90	0.00	30.366 
09:40	30.9	30.9	30.9	73	23.3	2	4	90	0.00	30.366 
09:45	31.0	31.0	31.0	73	23.4	2	5	90	0.00	30.357 
09:50	30.9	30.9	30.9	73	23.3	2	5	68	0.00	30.357 
09:55	31.0	31.0	31.0	73	23.4	2	4	90	0.00	30.357 
10:00	31.3	31.3	31.3	73	23.7	3	5	90	0.00	30.352 
10:05	31.8	31.8	31.8	72	23.8	3	4	112	0.00	30.352 
10:10	32.5	32.5	32.5	71	24.2	2	5	90	0.00	30.352 
10:15	32.7	32.7	32.7	70	24.0	3	6	90	0.00	30.347 
10:20	32.9	32.9	32.9	70	24.2	2	5	90	0.00	30.347 
10:25	33.5	33.5	33.5	69	24.4	2	4	90	0.00	30.347 
10:30	33.8	33.8	33.8	67	24.0	1	4	112	0.00	30.341 
10:35	34.0	34.0	34.0	67	24.2	2	4	90	0.00	30.341 
10:40	34.7	34.7	34.7	67	24.9	1	3	112	0.00	30.341 
10:45	35.3	35.3	35.3	62	23.6	1	5	112	0.00	30.336 
10:50	35.8	35.8	35.8	62	24.1	1	4	90	0.00	30.336 
10:55	35.9	35.9	35.9	60	23.4	2	5	112	0.00	30.336 
11:00	36.3	36.3	36.3	61	24.2	2	3	112	0.00	30.335 
11:05	36.9	36.9	36.9	58	23.5	1	5	90	0.00	30.335 
11:10	37.5	37.5	37.5	57	23.7	1	3	90	0.00	30.335 
11:15	37.8	37.8	37.8	56	23.5	1	4	90	0.00	30.335 
11:20	37.9	37.9	37.9	57	24.0	1	3	0	0.00	30.335 
11:25	38.3	38.3	38.3	54	23.1	2	4	90	0.00	30.335 
11:30	38.9	38.9	38.9	53	23.2	1	4	248	0.00	30.330 
11:35	39.2	39.2	39.2	53	23.5	2	4	248	0.00	30.330 
11:40	39.8	39.8	39.8	48	21.7	1	6	248	0.00	30.330 
11:45	40.1	40.1	40.1	49	22.5	2	4	248	0.00	30.328 
11:50	39.9	39.9	39.9	50	22.8	2	6	248	0.00	30.328 
11:55	40.1	40.1	40.1	49	22.5	1	5	90	0.00	30.328 
12:00	40.1	40.1	40.1	49	22.5	2	5	112	0.00	30.316 
12:05	40.2	40.2	40.2	49	22.6	1	4	68	0.00	30.316 
12:10	40.3	40.3	40.3	47	21.7	2	5	248	0.00	30.316 
12:15	40.3	40.3	40.3	46	21.2	1	4	90	0.00	30.313 
12:20	40.5	40.5	40.5	45	20.8	1	4	248	0.00	30.313 
12:25	40.8	40.8	40.8	45	21.1	1	3	248	0.00	30.313 
12:30	40.9	40.9	40.9	47	22.2	1	4	270	0.00	30.301 
12:35	40.6	40.6	40.6	45	20.9	2	4	90	0.00	30.301 
12:40	40.6	40.6	40.6	45	20.9	0	2	90	0.00	30.301 
12:45	40.6	40.6	40.6	45	20.9	1	3	202	0.00	30.286 
12:50	40.9	40.9	40.9	46	21.7	1	4	270	0.00	30.286 
12:55	41.2	41.2	41.2	44	21.0	1	4	90	0.00	30.286 
13:00	41.1	41.1	41.1	44	20.9	1	3	112	0.00	30.280 
13:05	40.9	40.9	40.9	43	20.1	1	4	90	0.00	30.280 
13:10	40.9	40.9	40.9	44	20.7	2	4	90	0.00	30.280 
13:15	41.1	41.1	41.1	45	21.4	1	3	112	0.00	30.266 
13:20	41.5	41.5	41.5	46	22.3	1	7	112	0.00	30.266 
13:25	41.8	41.8	41.8	45	22.0	1	3	90	0.00	30.266 
13:30	42.1	42.1	42.1	43	21.2	1	3	68	0.00	30.253 
13:35	42.3	42.3	42.3	41	20.3	2	4	112	0.00	30.253 
13:40	42.3	42.3	42.3	43	21.4	1	3	248	0.00	30.253 
13:45	42.2	42.2	42.2	43	21.3	2	4	90	0.00	30.244 
13:50	42.3	42.3	42.3	41	20.3	1	3	158	0.00	30.244 
13:55	42.3	42.3	42.3	42	20.9	2	4	90	0.00	30.244 
14:00	42.9	42.9	42.9	39	19.7	2	5	90	0.00	30.237 
14:05	42.8	42.8	42.8	39	19.6	2	5	90	0.00	30.237 
14:10	42.6	42.6	42.6	39	19.4	1	3	112	0.00	30.237 
14:15	42.5	42.5	42.5	40	19.9	1	3	135	0.00	30.241 
14:20	42.5	42.5	42.5	40	19.9	1	4	112	0.00	30.241 
14:25	42.3	42.3	42.3	40	19.7	2	5	90	0.00	30.241 
14:30	42.3	42.3	42.3	39	19.1	1	3	90	0.00	30.238 
14:35	42.3	42.3	42.3	41	20.3	2	4	112	0.00	30.238 
14:40	42.5	42.5	42.5	38	18.7	1	3	248	0.00	30.238 
14:45	42.6	42.6	42.6	37	18.2	2	4	248	0.00	30.233 
14:50	42.5	42.5	42.5	37	18.1	1	5	248	0.00	30.233 
14:55	42.3	42.3	42.3	39	19.1	1	4	68	0.00	30.233 
15:00	42.2	42.2	42.2	38	18.4	2	4	90	0.00	30.231 
15:05	42.2	42.2	42.2	38	18.4	1	2	248	0.00	30.231 
15:10	42.2	42.2	42.2	38	18.4	0	3	112	0.00	30.231 
15:15	42.2	42.2	42.2	39	19.0	1	3	248	0.00	30.225 
15:20	42.3	42.3	42.3	39	19.1	2	3	248	0.00	30.225 
15:25	42.5	42.5	42.5	39	19.3	1	3	112	0.00	30.225 
15:30	42.8	42.8	42.8	39	19.6	0	2	112	0.00	30.221 
15:35	42.9	42.9	42.9	40	20.3	1	3	112	0.00	30.221 
15:40	43.1	43.1	43.1	40	20.4	1	3	112	0.00	30.221 
15:45	43.1	43.1	43.1	39	19.8	2	4	112	0.00	30.207 
15:50	42.9	42.9	42.9	40	20.3	2	5	90	0.00	30.207 
15:55	43.1	43.1	43.1	39	19.8	1	5	135	0.00	30.207 
16:00	43.1	43.1	43.1	38	19.2	2	3	248	0.00	30.202 
16:05	43.1	43.1	43.1	39	19.8	1	3	90	0.00	30.202 
16:10	42.9	42.9	42.9	40	20.3	1	4	90	0.00	30.202 
16:15	43.1	43.1	43.1	40	20.4	0	2	135	0.00	30.202 
16:20	42.8	42.8	42.8	40	20.2	1	4	248	0.00	30.202 
16:25	42.8	42.8	42.8	40	20.2	1	4	248	0.00	30.202 
16:30	42.6	42.6	42.6	39	19.4	1	4	248	0.00	30.202 
16:35	42.6	42.6	42.6	39	19.4	1	3	248	0.00	30.202 
16:40	42.5	42.5	42.5	39	19.3	1	3	248	0.00	30.202 
16:45	42.3	42.3	42.3	39	19.1	1	5	248	0.00	30.196 
16:50	42.2	42.2	42.2	39	19.0	1	2	248	0.00	30.196 
16:55	42.1	42.1	42.1	39	18.9	1	4	248	0.00	30.196 
17:00	41.9	41.9	41.9	41	19.9	2	7	248	0.00	30.190 
17:05	41.6	41.6	41.6	42	20.2	3	5	248	0.00	30.190 
17:10	41.5	41.5	41.5	44	21.2	3	7	248	0.00	30.190 
17:15	41.2	41.2	41.2	45	21.5	1	4	225	0.00	30.189 
17:20	41.1	41.1	41.1	45	21.4	1	3	270	0.00	30.189 
17:25	40.9	40.9	40.9	47	22.2	2	6	248	0.00	30.189 
17:30	40.8	40.8	40.8	48	22.6	1	2	158	0.00	30.186 
17:35	40.6	40.6	40.6	50	23.4	2	6	248	0.00	30.186 
17:40	40.5	40.5	40.5	51	23.8	1	3	270	0.00	30.186 
17:45	40.2	40.2	40.2	52	24.0	1	3	112	0.00	30.192 
17:50	39.5	39.5	39.5	62	27.6	2	6	225	0.00	30.192 
17:55	38.2	38.2	38.2	70	29.3	3	6	248	0.00	30.192 
18:00	36.6	32.5	36.6	77	30.1	5	10	248	0.00	30.195 
18:05	35.6	32.2	35.6	81	30.4	4	9	248	0.00	30.195 
18:10	35.3	35.3	35.3	82	30.4	2	5	248	0.00	30.195 
18:15	35.0	35.0	35.0	83	30.4	3	6	248	0.00	30.199 
18:20	34.7	34.7	34.7	84	30.4	3	7	248	0.00	30.199 
18:25	34.6	34.6	34.6	85	30.6	3	6	248	0.00	30.199 
18:30	34.4	34.4	34.4	86	30.7	3	4	248	0.00	30.200 
18:35	34.3	34.3	34.3	86	30.6	3	7	248	0.00	30.200 
18:40	34.3	34.3	34.3	86	30.6	2	5	248	0.00	30.200 
18:45	34.1	34.1	34.1	87	30.6	2	5	248	0.00	30.199 
18:50	34.0	34.0	34.0	87	30.5	2	4	248	0.00	30.199 
18:55	33.8	33.8	33.8	88	30.6	2	6	248	0.00	30.199 
19:00	33.8	33.8	33.8	88	30.6	2	5	248	0.00	30.203 
19:05	33.7	33.7	33.7	88	30.5	2	3	248	0.00	30.203 
19:10	33.7	33.7	33.7	88	30.5	2	4	248	0.00	30.203 
19:15	33.7	33.7	33.7	88	30.5	1	4	248	0.00	30.205 
19:20	33.7	33.7	33.7	88	30.5	1	3	248	0.00	30.205 
19:25	33.5	33.5	33.5	88	30.3	1	3	248	0.00	30.205 
19:30	33.5	33.5	33.5	89	30.6	1	3	248	0.00	30.200 
19:35	33.5	33.5	33.5	89	30.6	1	3	248	0.00	30.200 
19:40	33.5	33.5	33.5	89	30.6	1	3	248	0.00	30.200 
19:45	33.5	33.5	33.5	89	30.6	0	2	248	0.00	30.198 
19:50	33.5	33.5	33.5	89	30.6	1	2	225	0.00	30.198 
19:55	33.4	33.4	33.4	90	30.8	1	3	225	0.00	30.198 
20:00	33.4	33.4	33.4	90	30.8	0	3	248	0.00	30.197 
20:05	33.4	33.4	33.4	90	30.8	1	3	248	0.00	30.197 
20:10	33.4	33.4	33.4	90	30.8	0	2	248	0.00	30.197 
20:15	33.4	33.4	33.4	90	30.8	0	3	248	0.00	30.187 
20:20	33.4	33.4	33.4	90	30.8	0	2	248	0.00	30.187 
20:25	33.2	33.2	33.2	90	30.6	0	1	248	0.00	30.187 
20:30	33.2	33.2	33.2	90	30.6	0	3	248	0.00	30.187 
20:35	33.2	33.2	33.2	91	30.9	0	1	248	0.00	30.187 
20:40	33.2	33.2	33.2	91	30.9	0	1	248	0.00	30.187 
20:45	33.2	33.2	33.2	91	30.9	0	1	248	0.00	30.175 
20:50	33.1	33.1	33.1	91	30.8	0	1	248	0.00	30.175 
20:55	33.1	33.1	33.1	91	30.8	0	2	248	0.00	30.175 
21:00	33.1	33.1	33.1	91	30.8	0	1	248	0.00	30.174 
21:05	32.9	32.9	32.9	91	30.6	0	1	248	0.00	30.174 
21:10	32.9	32.9	32.9	91	30.6	0	2	248	0.00	30.174 
21:15	32.9	32.9	32.9	92	30.8	0	2	248	0.00	30.166 
21:20	32.9	32.9	32.9	92	30.8	0	1	248	0.00	30.166 
21:25	32.8	32.8	32.8	92	30.7	0	1	248	0.00	30.166 
21:30	32.8	32.8	32.8	92	30.7	0	0	---	0.00	30.163 
21:35	32.8	32.8	32.8	92	30.7	0	1	248	0.00	30.163 
21:40	32.8	32.8	32.8	92	30.7	0	0	---	0.00	30.163 
21:45	32.8	32.8	32.8	92	30.7	0	1	248	0.00	30.156 
21:50	32.8	32.8	32.8	92	30.7	0	1	248	0.01	30.156 
21:55	32.8	32.8	32.8	92	30.7	0	2	248	0.00	30.156 
22:00	32.8	32.8	32.8	92	30.7	0	1	248	0.00	30.153 
22:05	32.8	32.8	32.8	92	30.7	0	1	248	0.00	30.153 
22:10	32.8	32.8	32.8	92	30.7	0	1	248	0.00	30.153 
22:15	32.8	32.8	32.8	92	30.7	0	0	---	0.00	30.145 
22:20	32.8	32.8	32.8	92	30.7	0	0	---	0.00	30.145 
22:25	32.7	32.7	32.7	92	30.6	0	0	---	0.00	30.145 
22:30	32.7	32.7	32.7	92	30.6	0	1	248	0.00	30.138 
22:35	32.7	32.7	32.7	92	30.6	0	0	---	0.00	30.138 
22:40	32.7	32.7	32.7	92	30.6	0	0	---	0.00	30.138 
22:45	32.7	32.7	32.7	92	30.6	0	1	248	0.00	30.137 
22:50	32.7	32.7	32.7	92	30.6	0	1	248	0.00	30.137 
22:55	32.7	32.7	32.7	93	30.9	0	1	248	0.00	30.137 
23:00	32.7	32.7	32.7	93	30.9	0	0	---	0.00	30.134 
23:05	32.7	32.7	32.7	93	30.9	0	0	---	0.00	30.134 
23:10	32.7	32.7	32.7	93	30.9	0	0	---	0.00	30.134 
23:15	32.5	32.5	32.5	93	30.7	0	0	---	0.00	30.120 
23:20	32.5	32.5	32.5	93	30.7	0	0	---	0.00	30.120 
23:25	32.5	32.5	32.5	93	30.7	0	0	---	0.00	30.120 
23:30	32.5	32.5	32.5	93	30.7	0	1	248	0.00	30.116 
23:35	32.5	32.5	32.5	93	30.7	0	1	248	0.00	30.116 
23:40	32.5	32.5	32.5	93	30.7	0	1	248	0.00	30.116 
23:45	32.5	32.5	32.5	93	30.7	0	1	248	0.00	30.106 
23:50	32.5	32.5	32.5	93	30.7	0	1	248	0.00	30.106 
23:55	32.5	32.5	32.5	93	30.7	0	2	248	0.00	30.106 

CoCoRaHS
IN-AL-39
A2 Web Hosting
Creative Commons License
GoDaddy
Look for:

loaded 2017-12-12 16:57:57 • last modified 2010-11-18 10:43:29
Privacy PolicyDisclaimer
• wx.awcolley.com is powered by PmWiki v.2002016 •
• all content (unless otherwise noted) © 2017 A W Colley